Time;durP1;ratioP1;P1;durP2;ratioP2;P2;SDS_P1;SDS_P2;PMS_P1;PMS_P2;Temp;Humidity;BMP_temperature;BMP_pressure;BME280_temperature;BME280_humidity;BME280_pressure;Samples;Min_cycle;Max_cycle;Signal;HPM_P1;HPM_P2
2021/05/31 00:00:06;;;;;;;8.48;3.08;;;;;;;;;;5030929;28;20068;-83
2021/05/31 00:02:32;;;;;;;5.22;3.00;;;;;;;;;;5029361;28;20045;-83
2021/05/31 00:04:58;;;;;;;4.50;2.88;;;;;;;;;;5032974;28;20105;-83
2021/05/31 00:07:24;;;;;;;4.43;2.97;;;;;;;;;;5036892;28;20065;-83
2021/05/31 00:09:55;;;;;;;4.45;3.10;;;;;;;;;;5029471;28;20048;-83
2021/05/31 00:12:21;;;;;;;5.85;3.45;;;;;;;;;;5038923;28;20107;-83
2021/05/31 00:14:47;;;;;;;6.20;3.20;;;;;;;;;;5030401;28;20108;-83
2021/05/31 00:17:13;;;;;;;5.40;3.45;;;;;;;;;;5036221;28;20029;-83
2021/05/31 00:19:40;;;;;;;5.82;3.33;;;;;;;;;;5038290;28;20092;-83
2021/05/31 00:22:06;;;;;;;4.55;2.97;;;;;;;;;;5038761;28;20033;-83
2021/05/31 00:24:32;;;;;;;5.25;3.10;;;;;;;;;;5031725;28;20025;-83
2021/05/31 00:26:58;;;;;;;5.63;3.40;;;;;;;;;;5030650;28;20036;-83
2021/05/31 00:29:25;;;;;;;5.55;3.78;;;;;;;;;;5017741;28;20029;-84
2021/05/31 00:31:55;;;;;;;6.70;3.30;;;;;;;;;;5036389;28;20112;-84
2021/05/31 00:34:21;;;;;;;5.82;3.20;;;;;;;;;;5038991;28;20120;-84
2021/05/31 00:36:47;;;;;;;4.68;3.22;;;;;;;;;;5029345;28;20036;-85
2021/05/31 00:39:13;;;;;;;6.75;3.42;;;;;;;;;;5030957;28;20036;-85
2021/05/31 00:41:44;;;;;;;5.18;3.50;;;;;;;;;;5034263;28;20109;-85
2021/05/31 00:44:10;;;;;;;6.43;3.60;;;;;;;;;;5036298;28;20096;-85
2021/05/31 00:46:36;;;;;;;5.57;3.33;;;;;;;;;;5036425;28;20056;-85
2021/05/31 00:49:02;;;;;;;5.35;3.33;;;;;;;;;;5026399;28;20068;-85
2021/05/31 00:51:29;;;;;;;4.80;3.40;;;;;;;;;;5042727;28;20022;-85
2021/05/31 00:53:55;;;;;;;4.53;3.20;;;;;;;;;;5016929;28;20065;-85
2021/05/31 00:56:21;;;;;;;5.38;3.00;;;;;;;;;;5036310;28;20080;-84
2021/05/31 00:58:47;;;;;;;5.85;3.17;;;;;;;;;;5034064;28;20033;-85
2021/05/31 01:01:15;;;;;;;5.25;3.10;;;;;;;;;;5028917;28;20041;-85
2021/05/31 01:03:41;;;;;;;4.47;3.20;;;;;;;;;;5030087;28;20045;-84
2021/05/31 01:06:08;;;;;;;5.97;3.08;;;;;;;;;;5037820;28;20120;-84
2021/05/31 01:08:46;;;;;;;5.55;3.10;;;;;;;;;;5034353;28;20030;-84
2021/05/31 01:11:13;;;;;;;5.28;2.60;;;;;;;;;;5032151;28;20042;-84
2021/05/31 01:13:58;;;;;;;6.25;3.08;;;;;;;;;;5026366;28;20034;-84
2021/05/31 01:16:30;;;;;;;6.05;2.80;;;;;;;;;;5034306;28;20026;-84
2021/05/31 01:18:59;;;;;;;5.25;3.40;;;;;;;;;;5028725;28;20109;-84
2021/05/31 01:21:28;;;;;;;5.13;3.40;;;;;;;;;;5045019;28;20022;-84
2021/05/31 01:24:02;;;;;;;4.70;3.00;;;;;;;;;;5033949;28;20040;-84
2021/05/31 01:26:32;;;;;;;4.47;3.60;;;;;;;;;;5029357;28;20036;-84
2021/05/31 01:29:05;;;;;;;5.00;3.38;;;;;;;;;;5034482;28;20470;-84
2021/05/31 01:31:41;;;;;;;4.57;3.35;;;;;;;;;;5036719;28;20063;-84
2021/05/31 01:34:08;;;;;;;4.90;3.35;;;;;;;;;;5030756;28;20025;-84
2021/05/31 01:36:36;;;;;;;5.80;3.50;;;;;;;;;;5029749;28;20032;-85
2021/05/31 01:39:03;;;;;;;3.88;3.08;;;;;;;;;;5034906;28;20079;-83
2021/05/31 01:41:29;;;;;;;5.57;3.47;;;;;;;;;;5031643;28;20042;-84
2021/05/31 01:43:56;;;;;;;5.03;3.28;;;;;;;;;;5035204;28;20069;-85
2021/05/31 01:46:22;;;;;;;5.82;3.47;;;;;;;;;;5031823;28;20056;-84
2021/05/31 01:48:49;;;;;;;6.72;3.50;;;;;;;;;;5038159;28;20030;-84
2021/05/31 01:51:16;;;;;;;5.97;3.50;;;;;;;;;;5034296;28;20419;-85
2021/05/31 01:53:42;;;;;;;5.10;3.42;;;;;;;;;;5029195;28;20022;-85
2021/05/31 01:56:08;;;;;;;5.50;3.78;;;;;;;;;;5031787;28;20036;-84
2021/05/31 01:58:35;;;;;;;4.65;3.70;;;;;;;;;;5032915;28;20434;-85
2021/05/31 02:01:01;;;;;;;5.30;3.50;;;;;;;;;;5029457;28;20056;-84
2021/05/31 02:03:27;;;;;;;8.02;3.83;;;;;;;;;;5035646;28;20046;-84
2021/05/31 02:05:53;;;;;;;7.00;3.70;;;;;;;;;;5026387;28;20032;-84
2021/05/31 02:08:19;;;;;;;8.45;3.83;;;;;;;;;;5033297;28;20679;-84
2021/05/31 02:10:46;;;;;;;6.15;3.47;;;;;;;;;;5033252;28;20076;-84
2021/05/31 02:13:15;;;;;;;6.60;3.95;;;;;;;;;;5035565;28;20049;-84
2021/05/31 02:15:41;;;;;;;5.68;3.50;;;;;;;;;;5037840;28;20021;-84
2021/05/31 02:18:22;;;;;;;5.22;3.70;;;;;;;;;;5029270;28;20115;-84
2021/05/31 02:20:50;;;;;;;7.13;4.05;;;;;;;;;;5034661;28;20083;-84
2021/05/31 02:23:16;;;;;;;6.47;3.97;;;;;;;;;;5035045;28;20053;-84
2021/05/31 02:25:43;;;;;;;6.40;4.00;;;;;;;;;;5035682;28;20382;-84
2021/05/31 02:28:09;;;;;;;5.38;3.88;;;;;;;;;;5034765;28;20033;-83
2021/05/31 02:30:35;;;;;;;5.65;3.95;;;;;;;;;;5033227;28;20112;-84
2021/05/31 02:33:02;;;;;;;5.88;3.95;;;;;;;;;;5038715;28;20026;-84
2021/05/31 02:35:30;;;;;;;6.67;3.73;;;;;;;;;;5031960;28;20026;-84
2021/05/31 02:37:57;;;;;;;5.35;4.30;;;;;;;;;;5032058;28;20309;-84
2021/05/31 02:40:23;;;;;;;7.10;4.13;;;;;;;;;;5036542;28;20018;-84
2021/05/31 02:42:54;;;;;;;6.43;4.00;;;;;;;;;;5031353;28;20034;-83
2021/05/31 02:45:22;;;;;;;4.50;3.38;;;;;;;;;;5035366;28;20477;-83
2021/05/31 02:47:48;;;;;;;5.03;3.70;;;;;;;;;;5037151;28;20086;-84
2021/05/31 02:50:14;;;;;;;6.95;4.25;;;;;;;;;;5033536;28;20064;-84
2021/05/31 02:52:41;;;;;;;5.97;4.10;;;;;;;;;;5036424;28;20037;-83
2021/05/31 02:55:12;;;;;;;5.60;4.00;;;;;;;;;;5039951;28;20052;-84
2021/05/31 02:57:39;;;;;;;7.32;3.90;;;;;;;;;;5032036;28;20014;-84
2021/05/31 03:00:06;;;;;;;4.63;3.67;;;;;;;;;;5043363;28;20045;-84
2021/05/31 03:02:32;;;;;;;5.40;3.47;;;;;;;;;;5044576;28;20068;-84
2021/05/31 03:04:58;;;;;;;7.15;3.50;;;;;;;;;;5037279;28;20034;-84
2021/05/31 03:07:24;;;;;;;5.30;3.30;;;;;;;;;;5035210;28;20028;-84
2021/05/31 03:09:50;;;;;;;7.18;3.72;;;;;;;;;;5041801;28;20442;-84
2021/05/31 03:12:16;;;;;;;6.90;4.10;;;;;;;;;;5032747;28;20036;-84
2021/05/31 03:14:42;;;;;;;7.80;4.10;;;;;;;;;;5038239;28;20037;-84
2021/05/31 03:17:08;;;;;;;5.38;3.90;;;;;;;;;;5039832;28;20029;-84
2021/05/31 03:19:34;;;;;;;5.88;3.88;;;;;;;;;;5044261;28;20048;-85
2021/05/31 03:22:00;;;;;;;5.82;4.15;;;;;;;;;;5033666;28;20076;-85
2021/05/31 03:24:26;;;;;;;7.38;4.10;;;;;;;;;;5042687;28;20056;-85
2021/05/31 03:26:52;;;;;;;7.05;4.43;;;;;;;;;;5031851;28;20084;-85
2021/05/31 03:29:18;;;;;;;4.80;3.53;;;;;;;;;;5032695;28;20056;-85
2021/05/31 03:31:44;;;;;;;5.75;3.50;;;;;;;;;;5033918;28;20057;-84
2021/05/31 03:34:10;;;;;;;7.35;3.45;;;;;;;;;;5024792;28;20070;-84
2021/05/31 03:36:36;;;;;;;6.65;3.95;;;;;;;;;;5025564;28;20488;-84
2021/05/31 03:39:04;;;;;;;5.93;3.80;;;;;;;;;;5035185;28;21053;-84
2021/05/31 03:41:30;;;;;;;6.37;4.10;;;;;;;;;;5027268;28;20058;-84
2021/05/31 03:43:56;;;;;;;5.38;3.67;;;;;;;;;;5023316;28;20291;-84
2021/05/31 03:46:22;;;;;;;6.75;3.80;;;;;;;;;;5031362;28;20024;-84
2021/05/31 03:48:48;;;;;;;6.68;3.80;;;;;;;;;;5032563;28;20504;-84
2021/05/31 03:51:17;;;;;;;4.75;3.50;;;;;;;;;;5023756;28;20095;-84
2021/05/31 03:53:43;;;;;;;5.72;3.00;;;;;;;;;;5021709;28;20071;-84
2021/05/31 03:56:09;;;;;;;6.20;3.50;;;;;;;;;;5030251;28;20033;-84
2021/05/31 03:58:37;;;;;;;5.10;3.00;;;;;;;;;;5026637;28;20433;-84
2021/05/31 04:01:04;;;;;;;4.78;3.10;;;;;;;;;;5030401;28;20025;-82
2021/05/31 04:03:30;;;;;;;4.57;2.70;;;;;;;;;;5039017;28;20063;-82
2021/05/31 04:06:05;;;;;;;6.13;2.80;;;;;;;;;;5039185;28;20032;-81
2021/05/31 04:14:00;;;;;;;8.18;2.88;;;;;;;;;;5030069;28;20128;-82
2021/05/31 04:16:28;;;;;;;5.50;2.72;;;;;;;;;;5032676;28;20132;-82
2021/05/31 04:18:54;;;;;;;4.22;2.75;;;;;;;;;;5030687;28;20030;-82
2021/05/31 04:21:20;;;;;;;5.70;2.60;;;;;;;;;;5032370;28;20099;-83
2021/05/31 04:23:46;;;;;;;3.67;2.70;;;;;;;;;;5030236;28;20044;-82
2021/05/31 04:26:12;;;;;;;4.75;2.95;;;;;;;;;;5033039;28;20025;-83
2021/05/31 04:28:38;;;;;;;4.32;2.40;;;;;;;;;;5031599;28;20037;-83
2021/05/31 04:31:04;;;;;;;3.95;2.30;;;;;;;;;;5030437;28;20021;-82
2021/05/31 04:33:30;;;;;;;6.13;2.45;;;;;;;;;;5029344;28;20112;-82
2021/05/31 04:35:56;;;;;;;4.68;3.03;;;;;;;;;;5039571;28;20060;-82
2021/05/31 04:38:22;;;;;;;5.65;2.78;;;;;;;;;;5034810;28;20073;-82
2021/05/31 04:40:48;;;;;;;4.53;2.45;;;;;;;;;;5032614;28;20355;-82
2021/05/31 04:43:14;;;;;;;4.43;2.30;;;;;;;;;;5029992;28;20417;-82
2021/05/31 04:45:40;;;;;;;4.85;2.80;;;;;;;;;;5031520;28;20032;-82
2021/05/31 04:48:06;;;;;;;5.28;2.95;;;;;;;;;;5028664;28;20025;-82
2021/05/31 04:50:32;;;;;;;3.72;2.60;;;;;;;;;;5030936;28;20032;-81
2021/05/31 04:52:58;;;;;;;5.95;2.80;;;;;;;;;;5024341;28;20025;-82
2021/05/31 04:55:24;;;;;;;4.82;2.70;;;;;;;;;;5033496;28;20041;-81
2021/05/31 04:57:50;;;;;;;4.68;2.90;;;;;;;;;;5027454;28;20060;-82
2021/05/31 05:00:16;;;;;;;5.22;3.03;;;;;;;;;;5023115;28;20361;-83
2021/05/31 05:02:42;;;;;;;8.68;3.03;;;;;;;;;;5023740;28;20108;-82
2021/05/31 05:05:09;;;;;;;6.00;2.72;;;;;;;;;;5023258;28;20049;-83
2021/05/31 05:07:35;;;;;;;4.38;2.70;;;;;;;;;;5032074;28;20025;-82
2021/05/31 05:10:01;;;;;;;4.18;2.58;;;;;;;;;;5031620;28;20034;-82
2021/05/31 05:12:27;;;;;;;4.13;2.20;;;;;;;;;;5026718;28;20117;-84
2021/05/31 05:14:53;;;;;;;6.95;2.28;;;;;;;;;;5024441;28;20022;-84
2021/05/31 05:17:19;;;;;;;3.78;2.13;;;;;;;;;;5030292;28;20120;-84
2021/05/31 05:19:45;;;;;;;4.43;2.10;;;;;;;;;;5024080;28;20014;-84
2021/05/31 05:22:11;;;;;;;4.00;2.35;;;;;;;;;;5027834;28;20026;-84
2021/05/31 05:24:37;;;;;;;4.90;2.17;;;;;;;;;;5025546;28;20169;-84
2021/05/31 05:27:06;;;;;;;3.90;2.05;;;;;;;;;;5032559;28;20026;-84
2021/05/31 05:29:32;;;;;;;6.38;2.55;;;;;;;;;;5015661;28;20030;-85
2021/05/31 05:31:59;;;;;;;4.13;1.88;;;;;;;;;;5028656;28;20123;-87
2021/05/31 05:34:25;;;;;;;4.13;1.90;;;;;;;;;;5025153;28;20068;-86
2021/05/31 05:36:56;;;;;;;5.32;1.50;;;;;;;;;;5019216;28;20018;-86
2021/05/31 05:42:15;;;;;;;;;;;;;;;;;;5036006;28;20026;-84
2021/05/31 05:47:42;;;;;;;2.70;1.67;;;;;;;;;;5021996;28;20185;-86
2021/05/31 05:50:08;;;;;;;1.98;1.50;;;;;;;;;;5041749;28;20014;-86
2021/05/31 05:52:36;;;;;;;3.20;1.70;;;;;;;;;;5033827;28;20030;-86
2021/05/31 05:55:02;;;;;;;3.63;1.40;;;;;;;;;;5028700;28;20516;-86
2021/05/31 05:57:28;;;;;;;2.47;1.60;;;;;;;;;;5023718;28;20034;-86
2021/05/31 05:59:53;;;;;;;2.00;1.50;;;;;;;;;;5022220;28;20030;-87
2021/05/31 06:02:19;;;;;;;2.40;1.30;;;;;;;;;;5021422;28;20079;-86
2021/05/31 06:04:45;;;;;;;2.47;1.45;;;;;;;;;;5019002;28;20496;-84
2021/05/31 06:07:11;;;;;;;2.53;1.70;;;;;;;;;;5023641;28;20034;-83
2021/05/31 06:09:37;;;;;;;4.60;1.80;;;;;;;;;;5022849;28;20129;-84
2021/05/31 06:12:03;;;;;;;4.63;1.67;;;;;;;;;;5023269;28;20022;-84
2021/05/31 06:14:29;;;;;;;3.30;1.73;;;;;;;;;;5020141;28;20054;-84
2021/05/31 06:16:55;;;;;;;2.67;1.50;;;;;;;;;;5018787;28;20475;-84
2021/05/31 06:19:21;;;;;;;3.33;1.67;;;;;;;;;;5035117;28;20160;-84
2021/05/31 06:21:47;;;;;;;1.88;1.42;;;;;;;;;;5028772;28;20028;-85
2021/05/31 06:24:13;;;;;;;3.08;1.42;;;;;;;;;;5023922;28;20038;-85
2021/05/31 06:26:39;;;;;;;1.95;1.60;;;;;;;;;;5027473;28;20033;-84
2021/05/31 06:29:05;;;;;;;2.70;1.50;;;;;;;;;;5042804;28;20018;-85
2021/05/31 06:31:31;;;;;;;3.83;1.50;;;;;;;;;;5035426;28;20109;-84
2021/05/31 06:33:57;;;;;;;2.95;1.73;;;;;;;;;;5027499;28;20097;-82
2021/05/31 06:36:24;;;;;;;2.28;1.30;;;;;;;;;;5029015;28;20068;-84
2021/05/31 06:38:50;;;;;;;2.27;1.43;;;;;;;;;;5023880;28;20108;-85
2021/05/31 06:41:16;;;;;;;2.97;1.42;;;;;;;;;;5032782;28;20064;-85
2021/05/31 06:43:42;;;;;;;4.18;1.30;;;;;;;;;;5031010;28;20109;-85
2021/05/31 06:46:08;;;;;;;2.83;1.40;;;;;;;;;;5026436;28;20392;-83
2021/05/31 06:48:34;;;;;;;3.42;1.30;;;;;;;;;;5030849;28;20398;-83
2021/05/31 06:51:00;;;;;;;2.33;1.52;;;;;;;;;;5031841;28;20030;-84
2021/05/31 06:53:27;;;;;;;1.70;1.30;;;;;;;;;;5031253;28;20033;-86
2021/05/31 06:55:53;;;;;;;3.80;1.40;;;;;;;;;;5020730;28;20380;-86
2021/05/31 06:58:19;;;;;;;1.60;1.30;;;;;;;;;;5036612;28;20044;-86
2021/05/31 07:00:47;;;;;;;2.85;1.58;;;;;;;;;;5037876;28;20029;-85
2021/05/31 07:03:13;;;;;;;2.30;1.42;;;;;;;;;;5038427;28;20093;-85
2021/05/31 07:05:39;;;;;;;1.77;1.40;;;;;;;;;;5041781;28;20034;-85
2021/05/31 07:08:05;;;;;;;2.10;1.40;;;;;;;;;;5033038;28;20033;-84
2021/05/31 07:10:31;;;;;;;2.42;1.35;;;;;;;;;;5024365;28;20053;-85
2021/05/31 07:12:57;;;;;;;2.45;1.33;;;;;;;;;;5042459;28;20034;-84
2021/05/31 07:15:25;;;;;;;2.28;1.40;;;;;;;;;;5042879;28;20043;-85
2021/05/31 07:17:51;;;;;;;2.03;1.20;;;;;;;;;;5045956;28;20032;-84
2021/05/31 07:20:19;;;;;;;2.95;1.38;;;;;;;;;;5050252;28;20033;-84
2021/05/31 07:22:45;;;;;;;1.67;1.25;;;;;;;;;;5042040;28;20021;-84
2021/05/31 07:25:13;;;;;;;3.20;1.40;;;;;;;;;;5033299;28;20030;-85
2021/05/31 07:27:39;;;;;;;2.00;1.25;;;;;;;;;;5034626;28;20025;-85
2021/05/31 07:30:07;;;;;;;2.25;1.40;;;;;;;;;;5041546;28;20499;-85
2021/05/31 07:32:33;;;;;;;3.50;1.42;;;;;;;;;;5037725;28;20054;-85
2021/05/31 07:34:59;;;;;;;2.35;1.40;;;;;;;;;;5046401;28;20037;-85
2021/05/31 07:37:25;;;;;;;3.22;1.40;;;;;;;;;;5034845;28;20025;-85
2021/05/31 07:39:51;;;;;;;3.50;1.40;;;;;;;;;;5031142;28;20478;-84
2021/05/31 07:42:18;;;;;;;2.88;1.40;;;;;;;;;;5033910;28;20121;-84
2021/05/31 07:44:44;;;;;;;2.50;1.33;;;;;;;;;;5026006;28;20034;-84
2021/05/31 07:47:10;;;;;;;1.77;1.27;;;;;;;;;;5033117;28;20036;-85
2021/05/31 07:49:36;;;;;;;5.55;1.58;;;;;;;;;;5038032;28;20036;-85
2021/05/31 07:52:36;;;;;;;2.42;1.40;;;;;;;;;;5030024;28;20037;-85
2021/05/31 07:54:55;;;;;;;1.92;1.38;;;;;;;;;;5024100;28;20597;-85
2021/05/31 07:57:21;;;;;;;3.83;1.40;;;;;;;;;;5045523;28;20115;-84
2021/05/31 07:59:48;;;;;;;2.72;1.50;;;;;;;;;;5032257;28;20029;-85
2021/05/31 08:02:14;;;;;;;2.63;1.30;;;;;;;;;;5034695;28;20022;-85
2021/05/31 08:04:40;;;;;;;1.90;1.42;;;;;;;;;;5032632;28;20021;-84
2021/05/31 08:07:08;;;;;;;2.00;1.33;;;;;;;;;;5031754;28;20025;-84
2021/05/31 08:09:34;;;;;;;;;;;;;;;;;;5032645;28;20045;-85
2021/05/31 08:12:00;;;;;;;3.25;1.60;;;;;;;;;;5034566;28;19909;-85
2021/05/31 08:14:26;;;;;;;3.60;1.40;;;;;;;;;;5029384;28;20026;-84
2021/05/31 08:16:53;;;;;;;3.13;1.65;;;;;;;;;;5018475;28;20087;-85
2021/05/31 08:19:19;;;;;;;1.83;1.40;;;;;;;;;;5026431;28;20022;-84
2021/05/31 08:21:46;;;;;;;1.67;1.20;;;;;;;;;;5031225;28;20017;-84
2021/05/31 08:24:12;;;;;;;1.75;1.40;;;;;;;;;;5031881;28;20123;-85
2021/05/31 08:26:39;;;;;;;2.10;1.40;;;;;;;;;;5028594;28;20022;-84
2021/05/31 08:29:05;;;;;;;2.03;1.40;;;;;;;;;;5033569;28;20033;-85
2021/05/31 08:31:31;;;;;;;3.20;1.50;;;;;;;;;;5043335;28;20025;-84
2021/05/31 08:33:57;;;;;;;2.28;1.50;;;;;;;;;;5041585;28;20056;-84
2021/05/31 08:36:24;;;;;;;3.53;1.40;;;;;;;;;;5034002;28;20025;-84
2021/05/31 08:38:52;;;;;;;1.77;1.40;;;;;;;;;;5039635;28;20068;-84
2021/05/31 08:41:19;;;;;;;3.17;1.48;;;;;;;;;;5021705;28;20033;-84
2021/05/31 08:43:45;;;;;;;3.28;1.35;;;;;;;;;;5023441;28;20033;-84
2021/05/31 08:46:11;;;;;;;2.38;1.38;;;;;;;;;;5027297;28;20040;-85
2021/05/31 08:48:37;;;;;;;2.92;1.30;;;;;;;;;;5040183;28;20108;-84
2021/05/31 08:51:03;;;;;;;3.40;1.45;;;;;;;;;;5031270;28;20036;-84
2021/05/31 08:53:29;;;;;;;1.98;1.40;;;;;;;;;;5038541;28;20135;-84
2021/05/31 08:55:55;;;;;;;2.13;1.33;;;;;;;;;;5032021;28;20092;-84
2021/05/31 08:58:21;;;;;;;3.60;1.70;;;;;;;;;;5028318;28;20025;-84
2021/05/31 09:00:47;;;;;;;1.90;1.50;;;;;;;;;;5034209;28;20150;-85
2021/05/31 09:03:13;;;;;;;2.92;1.60;;;;;;;;;;5042488;28;20041;-84
2021/05/31 09:05:40;;;;;;;2.00;1.30;;;;;;;;;;5030447;28;20044;-85
2021/05/31 09:08:11;;;;;;;2.63;1.60;;;;;;;;;;5030507;28;20048;-84
2021/05/31 09:10:44;;;;;;;3.03;1.60;;;;;;;;;;5041712;28;20454;-83
2021/05/31 09:13:24;;;;;;;1.77;1.40;;;;;;;;;;5037597;28;20021;-84
2021/05/31 09:16:13;;;;;;;5.18;1.70;;;;;;;;;;5038045;28;20031;-83
2021/05/31 09:18:39;;;;;;;2.22;1.60;;;;;;;;;;5034763;28;20061;-84
2021/05/31 09:21:26;;;;;;;3.93;1.33;;;;;;;;;;5041496;28;20075;-84
2021/05/31 09:24:12;;;;;;;2.30;1.47;;;;;;;;;;5035002;28;20033;-84
2021/05/31 09:26:44;;;;;;;2.40;1.40;;;;;;;;;;5020242;28;20041;-85
2021/05/31 09:29:10;;;;;;;2.80;1.60;;;;;;;;;;5033152;28;20080;-85
2021/05/31 09:31:36;;;;;;;2.17;1.25;;;;;;;;;;5046724;28;20025;-89
2021/05/31 09:34:09;;;;;;;2.40;1.50;;;;;;;;;;5049336;28;20021;-91
2021/05/31 09:36:47;;;;;;;2.58;1.70;;;;;;;;;;5048270;28;20026;-90
2021/05/31 09:39:13;;;;;;;1.58;1.33;;;;;;;;;;5040198;28;20467;-89
2021/05/31 09:41:39;;;;;;;1.67;1.50;;;;;;;;;;5049722;28;20041;-91
2021/05/31 09:44:07;;;;;;;5.75;1.50;;;;;;;;;;5041864;28;20072;-90
2021/05/31 09:46:33;;;;;;;2.67;1.70;;;;;;;;;;5037057;28;20028;-90
2021/05/31 09:48:59;;;;;;;2.47;1.60;;;;;;;;;;5042909;28;20232;-92
2021/05/31 09:51:25;;;;;;;2.35;1.38;;;;;;;;;;5044924;28;20045;-92
2021/05/31 09:53:54;;;;;;;2.50;1.40;;;;;;;;;;5033649;28;20469;-91
2021/05/31 09:56:21;;;;;;;3.05;1.60;;;;;;;;;;5037898;28;20040;-91
2021/05/31 09:58:50;;;;;;;2.08;1.55;;;;;;;;;;5054596;28;20021;-91
2021/05/31 10:01:16;;;;;;;4.30;1.65;;;;;;;;;;5057190;28;20053;-93
2021/05/31 10:03:56;;;;;;;6.15;1.40;;;;;;;;;;5057389;28;20032;-92
2021/05/31 10:06:39;;;;;;;2.72;1.70;;;;;;;;;;5034108;28;20184;-92
2021/05/31 10:09:06;;;;;;;2.85;1.58;;;;;;;;;;5044509;28;20185;-92
2021/05/31 10:11:32;;;;;;;3.95;1.90;;;;;;;;;;5038828;28;20033;-91
2021/05/31 10:14:02;;;;;;;2.58;1.60;;;;;;;;;;5030421;28;20014;-93
2021/05/31 10:16:29;;;;;;;5.55;2.10;;;;;;;;;;5025030;28;20018;-93
2021/05/31 10:18:55;;;;;;;3.47;1.50;;;;;;;;;;5041904;28;20026;-93
2021/05/31 10:21:22;;;;;;;3.78;1.70;;;;;;;;;;5043883;28;20054;-93
2021/05/31 10:23:48;;;;;;;2.35;1.67;;;;;;;;;;5040854;28;20038;-91
2021/05/31 10:26:16;;;;;;;2.97;1.50;;;;;;;;;;5030011;28;20464;-91
2021/05/31 10:28:43;;;;;;;2.35;1.67;;;;;;;;;;5029638;28;20021;-91
2021/05/31 10:31:09;;;;;;;2.25;1.80;;;;;;;;;;5039946;28;20432;-91
2021/05/31 10:33:39;;;;;;;2.20;1.60;;;;;;;;;;5034299;28;20026;-91
2021/05/31 10:36:12;;;;;;;3.20;1.85;;;;;;;;;;5036108;28;20083;-92
2021/05/31 10:38:39;;;;;;;2.65;1.73;;;;;;;;;;5025431;28;20045;-92
2021/05/31 10:41:14;;;;;;;3.30;1.70;;;;;;;;;;5028474;28;20466;-92
2021/05/31 10:43:45;;;;;;;4.32;1.58;;;;;;;;;;5037864;28;20033;-93
2021/05/31 10:46:14;;;;;;;3.10;1.85;;;;;;;;;;5029987;28;20177;-92
2021/05/31 10:48:42;;;;;;;1.98;1.42;;;;;;;;;;5041844;28;20097;-92
2021/05/31 10:51:13;;;;;;;3.40;1.67;;;;;;;;;;5044266;28;20018;-93
2021/05/31 10:53:39;;;;;;;2.92;1.65;;;;;;;;;;5029497;28;20033;-93
2021/05/31 10:56:05;;;;;;;2.38;1.77;;;;;;;;;;5035358;28;20089;-93
2021/05/31 10:58:44;;;;;;;3.22;1.90;;;;;;;;;;5030214;28;20026;-92
2021/05/31 11:01:14;;;;;;;2.35;1.52;;;;;;;;;;5023425;28;20036;-91
2021/05/31 11:03:53;;;;;;;4.32;1.67;;;;;;;;;;5040693;28;20130;-91
2021/05/31 11:06:23;;;;;;;2.80;1.77;;;;;;;;;;5036410;28;20097;-92
2021/05/31 11:08:50;;;;;;;2.40;1.77;;;;;;;;;;5031807;28;20068;-91
2021/05/31 11:11:43;;;;;;;3.45;1.90;;;;;;;;;;5036522;28;20112;-92
2021/05/31 11:14:09;;;;;;;2.55;1.70;;;;;;;;;;5028083;28;20029;-92
2021/05/31 11:16:36;;;;;;;2.70;1.70;;;;;;;;;;5035391;28;20057;-91
2021/05/31 11:19:06;;;;;;;3.08;1.80;;;;;;;;;;5030749;28;20029;-92
2021/05/31 11:21:32;;;;;;;1.80;1.52;;;;;;;;;;5034291;28;20021;-90
2021/05/31 11:24:01;;;;;;;4.50;1.55;;;;;;;;;;5042612;28;20029;-93
2021/05/31 11:26:28;;;;;;;4.35;1.83;;;;;;;;;;5041767;28;20017;-90
2021/05/31 11:28:57;;;;;;;3.20;2.00;;;;;;;;;;5040389;28;20120;-91
2021/05/31 11:31:24;;;;;;;2.47;1.77;;;;;;;;;;5038748;28;20105;-92
2021/05/31 11:33:55;;;;;;;4.60;2.00;;;;;;;;;;5029470;28;20037;-93
2021/05/31 11:36:31;;;;;;;2.45;1.70;;;;;;;;;;5033856;28;20071;-95
2021/05/31 11:38:57;;;;;;;2.67;1.75;;;;;;;;;;5047418;23;20467;-61
2021/05/31 11:41:31;;;;;;;3.08;1.85;;;;;;;;;;5029970;28;20375;-61
2021/05/31 11:43:57;;;;;;;3.38;1.80;;;;;;;;;;5044284;28;20253;-61
2021/05/31 11:46:23;;;;;;;2.30;1.80;;;;;;;;;;5035314;28;20025;-61
2021/05/31 11:48:49;;;;;;;2.92;1.98;;;;;;;;;;5029190;28;20498;-60
2021/05/31 11:51:15;;;;;;;2.47;1.77;;;;;;;;;;5022920;28;20432;-60
2021/05/31 11:53:45;;;;;;;3.92;1.80;;;;;;;;;;5029412;28;20477;-60
2021/05/31 11:56:12;;;;;;;3.95;1.60;;;;;;;;;;5031803;28;20025;-61
2021/05/31 11:58:44;;;;;;;3.03;1.93;;;;;;;;;;5030742;28;20032;-59
2021/05/31 12:01:12;;;;;;;3.92;1.60;;;;;;;;;;5030443;28;20108;-59
2021/05/31 12:03:38;;;;;;;;;;;;;;;;;;5032934;28;20242;-59
2021/05/31 12:06:10;;;;;;;2.33;1.60;;;;;;;;;;5038890;28;19916;-59
2021/05/31 12:08:36;;;;;;;4.60;1.83;;;;;;;;;;5041759;28;20046;-59
2021/05/31 12:11:02;;;;;;;1.98;1.65;;;;;;;;;;5047463;28;20025;-61
2021/05/31 12:13:34;;;;;;;5.88;1.90;;;;;;;;;;5033740;28;20461;-59
2021/05/31 12:16:10;;;;;;;3.33;1.83;;;;;;;;;;5032276;28;20060;-59
2021/05/31 12:18:36;;;;;;;2.20;1.60;;;;;;;;;;5030875;28;20029;-59
2021/05/31 12:21:02;;;;;;;3.05;1.73;;;;;;;;;;5022116;28;20215;-59
2021/05/31 12:23:28;;;;;;;2.83;1.80;;;;;;;;;;5028737;28;20045;-59
2021/05/31 12:25:58;;;;;;;3.95;1.80;;;;;;;;;;5036190;28;20618;-59
2021/05/31 12:28:29;;;;;;;2.67;1.70;;;;;;;;;;5034465;28;20112;-59
2021/05/31 12:30:55;;;;;;;2.75;1.88;;;;;;;;;;5024968;28;20413;-59
2021/05/31 12:33:21;;;;;;;4.35;1.88;;;;;;;;;;5033190;28;20431;-59
2021/05/31 12:35:48;;;;;;;2.80;1.83;;;;;;;;;;5030907;28;20072;-59
2021/05/31 12:38:14;;;;;;;2.28;1.63;;;;;;;;;;5031547;28;20107;-59
2021/05/31 12:40:41;;;;;;;2.30;1.70;;;;;;;;;;5033867;28;20052;-59
2021/05/31 12:43:08;;;;;;;2.47;1.98;;;;;;;;;;5032667;28;20064;-59
2021/05/31 12:45:40;;;;;;;2.97;1.92;;;;;;;;;;5032997;28;20480;-59
2021/05/31 12:48:12;;;;;;;2.95;2.00;;;;;;;;;;5031721;28;20155;-61
2021/05/31 12:50:38;;;;;;;4.05;1.77;;;;;;;;;;5016909;28;20026;-58
2021/05/31 12:53:09;;;;;;;4.88;2.10;;;;;;;;;;5032799;28;20032;-58
2021/05/31 12:55:37;;;;;;;3.65;1.95;;;;;;;;;;5033999;28;20034;-59
2021/05/31 12:58:13;;;;;;;2.10;1.90;;;;;;;;;;5032640;28;20017;-59
2021/05/31 13:00:40;;;;;;;4.25;1.88;;;;;;;;;;5028355;28;20090;-59
2021/05/31 13:03:06;;;;;;;3.90;1.95;;;;;;;;;;5042521;28;20037;-60
2021/05/31 13:05:36;;;;;;;4.25;1.90;;;;;;;;;;5028143;28;20032;-59
2021/05/31 13:08:05;;;;;;;4.18;1.80;;;;;;;;;;5033845;28;20013;-60
2021/05/31 13:10:33;;;;;;;3.67;1.60;;;;;;;;;;5034112;28;20480;-59
2021/05/31 13:12:59;;;;;;;;;;;;;;;;;;5032510;28;20100;-59
2021/05/31 13:15:35;;;;;;;5.78;2.10;;;;;;;;;;5031644;28;19956;-59
2021/05/31 13:18:05;;;;;;;2.60;1.90;;;;;;;;;;5032034;28;20013;-60
2021/05/31 13:20:32;;;;;;;2.90;1.88;;;;;;;;;;5015187;28;20075;-59
2021/05/31 13:22:59;;;;;;;3.05;1.90;;;;;;;;;;5034233;28;20644;-60
2021/05/31 13:25:26;;;;;;;2.10;1.80;;;;;;;;;;5032681;28;20053;-60
2021/05/31 13:27:52;;;;;;;2.90;1.83;;;;;;;;;;5031569;28;20021;-60
2021/05/31 13:30:21;;;;;;;2.05;1.70;;;;;;;;;;5027229;28;20091;-59
2021/05/31 13:32:57;;;;;;;3.42;2.05;;;;;;;;;;5030030;28;20014;-60
2021/05/31 13:35:27;;;;;;;3.70;1.77;;;;;;;;;;5026959;28;20021;-60
2021/05/31 13:37:57;;;;;;;2.40;1.98;;;;;;;;;;5035588;28;20034;-59
2021/05/31 13:40:35;;;;;;;4.43;1.83;;;;;;;;;;5031766;28;20033;-60
2021/05/31 13:43:06;;;;;;;1.85;1.65;;;;;;;;;;5031634;28;20052;-59
2021/05/31 13:45:34;;;;;;;4.85;2.08;;;;;;;;;;5032025;28;20033;-60
2021/05/31 13:48:00;;;;;;;2.78;2.00;;;;;;;;;;5031772;28;20013;-60
2021/05/31 13:50:27;;;;;;;4.50;1.80;;;;;;;;;;5011724;28;20037;-59
2021/05/31 13:52:54;;;;;;;5.10;1.80;;;;;;;;;;5034620;28;20083;-60
2021/05/31 13:55:20;;;;;;;4.45;1.98;;;;;;;;;;5031658;28;20026;-60
2021/05/31 13:57:48;;;;;;;4.65;2.38;;;;;;;;;;5032103;28;20476;-59
2021/05/31 14:00:14;;;;;;;;;;;;;;;;;;5027291;28;20075;-59
2021/05/31 14:02:40;;;;;;;3.78;1.85;;;;;;;;;;5028108;28;20360;-59
2021/05/31 14:05:07;;;;;;;2.10;1.90;;;;;;;;;;5031968;28;20037;-59
2021/05/31 14:07:33;;;;;;;5.75;1.92;;;;;;;;;;5032929;28;20033;-58
2021/05/31 14:09:59;;;;;;;2.40;2.00;;;;;;;;;;5031419;28;20061;-59
2021/05/31 14:12:26;;;;;;;2.95;2.15;;;;;;;;;;5031671;28;20242;-59
2021/05/31 14:14:52;;;;;;;2.92;1.70;;;;;;;;;;5030086;28;20029;-59
2021/05/31 14:17:18;;;;;;;7.90;2.00;;;;;;;;;;5029195;28;20489;-59
2021/05/31 14:19:44;;;;;;;3.45;2.05;;;;;;;;;;5022619;28;20040;-59
2021/05/31 14:22:11;;;;;;;4.82;2.30;;;;;;;;;;5029769;28;20068;-59
2021/05/31 14:24:37;;;;;;;2.42;1.80;;;;;;;;;;5031400;28;20040;-59
2021/05/31 14:27:05;;;;;;;4.88;2.05;;;;;;;;;;5031081;28;20025;-59
2021/05/31 14:29:31;;;;;;;4.03;2.10;;;;;;;;;;5022649;28;20139;-59
2021/05/31 14:31:57;;;;;;;3.00;2.10;;;;;;;;;;5034341;28;20100;-59
2021/05/31 14:34:23;;;;;;;2.38;1.88;;;;;;;;;;5031153;28;20037;-59
2021/05/31 14:36:49;;;;;;;3.17;2.00;;;;;;;;;;5031248;28;20041;-60
2021/05/31 14:39:15;;;;;;;2.67;2.10;;;;;;;;;;5031346;28;20044;-58
2021/05/31 14:41:41;;;;;;;5.75;2.00;;;;;;;;;;5031681;28;20124;-59
2021/05/31 14:44:07;;;;;;;3.60;2.00;;;;;;;;;;5035138;28;20026;-59
2021/05/31 14:46:33;;;;;;;5.22;2.10;;;;;;;;;;5035811;28;20048;-59
2021/05/31 14:48:59;;;;;;;3.75;1.98;;;;;;;;;;5030024;28;20465;-59
2021/05/31 14:51:25;;;;;;;4.28;2.10;;;;;;;;;;5026746;28;20031;-59
2021/05/31 14:53:51;;;;;;;2.78;1.80;;;;;;;;;;5033100;28;20037;-59
2021/05/31 14:56:17;;;;;;;4.30;2.28;;;;;;;;;;5032781;28;20044;-59
2021/05/31 14:58:43;;;;;;;6.18;2.22;;;;;;;;;;5033524;28;20061;-59